Time;durP1;ratioP1;P1;durP2;ratioP2;P2;SDS_P1;SDS_P2;PMS_P1;PMS_P2;Temp;Humidity;BMP_temperature;BMP_pressure;BME280_temperature;BME280_humidity;BME280_pressure;Samples;Min_cycle;Max_cycle;Signal;HPM_P1;HPM_P2
2021/06/26 00:00:23;;;;;;;7.70;6.45;;;16.60;99.90;;;;;;5106528;28;20600;-82
2021/06/26 00:02:50;;;;;;;8.80;7.47;;;16.60;99.90;;;;;;5118458;28;20226;-83
2021/06/26 00:05:16;;;;;;;7.70;6.90;;;16.50;99.90;;;;;;5114056;28;20203;-84
2021/06/26 00:07:43;;;;;;;12.60;8.47;;;16.50;99.90;;;;;;5097921;28;20197;-84
2021/06/26 00:10:13;;;;;;;12.50;9.20;;;16.50;99.90;;;;;;5098007;28;20220;-84
2021/06/26 00:12:40;;;;;;;8.07;7.13;;;16.50;99.90;;;;;;5106007;28;20488;-84
2021/06/26 00:15:10;;;;;;;10.55;8.70;;;16.50;99.90;;;;;;5118160;28;20203;-84
2021/06/26 00:17:37;;;;;;;13.90;9.20;;;16.40;99.90;;;;;;5109087;28;20659;-84
2021/06/26 00:20:05;;;;;;;11.10;8.77;;;16.40;99.90;;;;;;5116467;28;20592;-83
2021/06/26 00:22:31;;;;;;;10.88;8.63;;;16.40;99.90;;;;;;5115752;28;20211;-83
2021/06/26 00:24:58;;;;;;;11.27;9.45;;;16.40;99.90;;;;;;5097951;28;20192;-85
2021/06/26 00:27:28;;;;;;;10.07;8.85;;;16.40;99.90;;;;;;5097537;28;20204;-84
2021/06/26 00:29:55;;;;;;;9.73;8.47;;;16.40;99.90;;;;;;5105034;28;20208;-84
2021/06/26 00:32:21;;;;;;;8.03;7.07;;;16.40;99.90;;;;;;5117592;28;20184;-83
2021/06/26 00:34:48;;;;;;;8.17;7.37;;;16.40;99.90;;;;;;5118376;28;20203;-83
2021/06/26 00:37:15;;;;;;;11.40;8.00;;;16.40;99.90;;;;;;5116214;28;20204;-84
2021/06/26 00:39:42;;;;;;;11.13;9.23;;;16.40;99.90;;;;;;5129583;28;20259;-84
2021/06/26 00:42:09;;;;;;;12.33;11.03;;;16.50;99.90;;;;;;5128214;27;20203;-83
2021/06/26 00:44:37;;;;;;;15.13;13.43;;;16.40;99.90;;;;;;5129548;28;20226;-83
2021/06/26 00:47:11;;;;;;;13.83;12.37;;;16.40;99.90;;;;;;5116822;28;20237;-83
2021/06/26 00:49:39;;;;;;;15.67;12.27;;;16.30;99.90;;;;;;5117826;28;20196;-83
2021/06/26 00:52:06;;;;;;;12.17;10.13;;;16.30;99.90;;;;;;5117718;28;20245;-83
2021/06/26 00:54:33;;;;;;;25.10;16.90;;;16.30;99.90;;;;;;5115052;28;20207;-83
2021/06/26 00:57:00;;;;;;;17.43;13.33;;;16.20;99.90;;;;;;5097075;28;20215;-84
2021/06/26 00:59:27;;;;;;;16.53;12.63;;;16.20;99.90;;;;;;5096464;28;20200;-82
2021/06/26 01:01:56;;;;;;;15.27;12.27;;;16.20;99.90;;;;;;5076391;28;20512;-84
2021/06/26 01:04:22;;;;;;;11.48;10.00;;;16.20;99.90;;;;;;5076643;28;20224;-84
2021/06/26 01:06:49;;;;;;;14.30;12.38;;;16.20;99.90;;;;;;5083252;28;20197;-84
2021/06/26 01:09:16;;;;;;;12.68;11.38;;;16.10;99.90;;;;;;5096378;28;20208;-83
2021/06/26 01:11:43;;;;;;;11.60;10.00;;;16.20;99.90;;;;;;5096927;28;20487;-82
2021/06/26 01:14:10;;;;;;;12.73;11.27;;;16.10;99.90;;;;;;5100191;28;20196;-83
2021/06/26 01:16:36;;;;;;;13.03;11.63;;;16.10;99.90;;;;;;5116304;28;20239;-83
2021/06/26 01:19:05;;;;;;;16.10;14.07;;;16.10;99.90;;;;;;5116598;28;20210;-83
2021/06/26 01:21:35;;;;;;;13.17;10.47;;;16.10;99.90;;;;;;5116490;28;20206;-84
2021/06/26 01:24:04;;;;;;;12.67;10.50;;;16.10;99.90;;;;;;5099516;28;20208;-83
2021/06/26 01:26:35;;;;;;;13.73;11.67;;;16.10;99.90;;;;;;5096591;28;20189;-83
2021/06/26 01:29:02;;;;;;;14.10;12.00;;;16.10;99.90;;;;;;5096001;28;20499;-83
2021/06/26 01:31:28;;;;;;;14.37;11.73;;;16.10;99.90;;;;;;5114294;28;20208;-84
2021/06/26 01:33:55;;;;;;;12.93;11.10;;;16.10;99.90;;;;;;5117128;28;20203;-83
2021/06/26 01:36:22;;;;;;;14.87;13.00;;;16.10;99.90;;;;;;5116093;28;20207;-83
2021/06/26 01:38:54;;;;;;;15.70;13.13;;;16.10;99.90;;;;;;5116412;28;20195;-83
2021/06/26 01:41:24;;;;;;;13.95;12.25;;;16.20;99.90;;;;;;5075978;28;20186;-83
2021/06/26 01:43:51;;;;;;;15.13;12.73;;;16.10;99.90;;;;;;5075427;28;20217;-82
2021/06/26 01:46:18;;;;;;;18.23;15.40;;;16.20;99.90;;;;;;5076190;28;20201;-83
2021/06/26 01:48:44;;;;;;;22.10;15.33;;;16.10;99.90;;;;;;5082304;28;20209;-83
2021/06/26 01:51:11;;;;;;;17.17;13.80;;;16.20;99.90;;;;;;5095511;28;20204;-82
2021/06/26 01:53:38;;;;;;;18.33;14.43;;;16.20;99.90;;;;;;5095573;28;20612;-83
2021/06/26 01:56:05;;;;;;;17.57;15.17;;;16.20;99.90;;;;;;5104725;28;20181;-83
2021/06/26 01:58:34;;;;;;;21.00;16.97;;;16.20;99.90;;;;;;5108862;28;20209;-83
2021/06/26 02:01:01;;;;;;;20.13;15.83;;;16.20;99.90;;;;;;5105012;28;20192;-83
2021/06/26 02:03:27;;;;;;;19.67;16.33;;;16.20;99.90;;;;;;5095968;28;20225;-83
2021/06/26 02:05:54;;;;;;;16.00;13.98;;;16.20;99.90;;;;;;5095094;28;20227;-83
2021/06/26 02:08:21;;;;;;;13.93;12.43;;;16.20;99.90;;;;;;5095750;28;20204;-83
2021/06/26 02:10:48;;;;;;;14.18;12.57;;;16.20;99.90;;;;;;5095042;28;20221;-82
2021/06/26 02:13:15;;;;;;;18.80;16.13;;;16.20;99.90;;;;;;5101496;28;20199;-82
2021/06/26 02:15:43;;;;;;;16.17;13.45;;;16.20;99.90;;;;;;5115782;28;20200;-82
2021/06/26 02:18:10;;;;;;;22.90;19.13;;;16.20;99.90;;;;;;5096426;28;20727;-83
2021/06/26 02:20:36;;;;;;;21.10;16.53;;;16.20;99.90;;;;;;5095679;28;20197;-83
2021/06/26 02:23:03;;;;;;;20.97;16.43;;;16.20;99.90;;;;;;5095511;28;20299;-83
2021/06/26 02:25:30;;;;;;;20.50;16.70;;;16.20;99.90;;;;;;5095153;28;20193;-83
2021/06/26 02:27:57;;;;;;;16.00;13.27;;;16.20;99.90;;;;;;5095252;28;20189;-83
2021/06/26 02:30:23;;;;;;;18.57;14.40;;;16.20;99.90;;;;;;5094475;28;20204;-82
2021/06/26 02:32:51;;;;;;;18.67;14.50;;;16.20;99.90;;;;;;5094999;28;20201;-83
2021/06/26 02:35:18;;;;;;;15.93;13.87;;;16.20;99.90;;;;;;5094791;28;20193;-82
2021/06/26 02:37:45;;;;;;;15.45;13.18;;;16.20;99.90;;;;;;5115889;28;20215;-83
2021/06/26 02:40:13;;;;;;;21.35;16.60;;;16.20;99.90;;;;;;5114731;28;20203;-83
2021/06/26 02:42:40;;;;;;;22.67;19.17;;;16.30;99.90;;;;;;5097402;28;20204;-83
2021/06/26 02:45:08;;;;;;;19.90;15.87;;;16.30;99.90;;;;;;5095555;28;20488;-82
2021/06/26 02:47:35;;;;;;;17.00;14.33;;;16.30;99.90;;;;;;5095145;28;20208;-83
2021/06/26 02:50:04;;;;;;;19.87;15.40;;;16.20;99.90;;;;;;5104184;28;20208;-83
2021/06/26 02:52:31;;;;;;;18.13;15.23;;;16.20;99.90;;;;;;5115747;28;20204;-84
2021/06/26 02:54:58;;;;;;;22.57;17.03;;;16.20;99.90;;;;;;5114997;28;20509;-83
2021/06/26 02:57:25;;;;;;;22.00;16.50;;;16.20;99.90;;;;;;5115951;28;20200;-83
2021/06/26 02:59:53;;;;;;;16.48;14.57;;;16.20;99.90;;;;;;5095119;28;20207;-84
2021/06/26 03:02:19;;;;;;;16.47;13.40;;;16.20;99.90;;;;;;5095414;28;20196;-83
2021/06/26 03:04:46;;;;;;;19.37;15.40;;;16.20;99.90;;;;;;5095359;28;20220;-84
2021/06/26 03:07:15;;;;;;;21.40;17.00;;;16.20;99.90;;;;;;5094551;28;20200;-83
2021/06/26 03:09:42;;;;;;;23.00;18.37;;;16.20;99.90;;;;;;5095417;28;20212;-83
2021/06/26 03:12:10;;;;;;;18.67;15.60;;;16.20;99.90;;;;;;5098980;28;20535;-83
2021/06/26 03:14:37;;;;;;;19.27;15.23;;;16.20;99.90;;;;;;5108783;28;20594;-83
2021/06/26 03:17:04;;;;;;;18.23;14.90;;;16.20;99.90;;;;;;5095843;28;20228;-82
2021/06/26 03:19:31;;;;;;;23.07;17.40;;;16.20;99.90;;;;;;5095560;28;20200;-83
2021/06/26 03:21:58;;;;;;;21.73;16.53;;;16.20;99.90;;;;;;5094297;28;20203;-83
2021/06/26 03:24:27;;;;;;;22.63;17.27;;;16.30;99.90;;;;;;5094939;28;20229;-83
2021/06/26 03:26:55;;;;;;;25.17;18.87;;;16.30;99.90;;;;;;5094775;28;20197;-84
2021/06/26 03:29:21;;;;;;;21.60;15.90;;;16.20;99.90;;;;;;5076351;28;20205;-84
2021/06/26 03:31:48;;;;;;;17.70;14.40;;;16.30;99.90;;;;;;5074769;28;20202;-84
2021/06/26 03:34:15;;;;;;;29.80;20.63;;;16.30;99.90;;;;;;5076568;28;20520;-83
2021/06/26 03:36:42;;;;;;;22.20;16.77;;;16.30;99.90;;;;;;5094436;28;20189;-84
2021/06/26 03:39:09;;;;;;;26.90;20.67;;;16.30;99.90;;;;;;5094927;28;20896;-83
2021/06/26 03:41:38;;;;;;;28.53;21.03;;;16.30;99.90;;;;;;5094409;28;20232;-84
2021/06/26 03:44:05;;;;;;;25.30;18.63;;;16.30;99.90;;;;;;5094274;28;20224;-83
2021/06/26 03:46:33;;;;;;;27.73;19.33;;;16.30;99.90;;;;;;5094800;28;20197;-83
2021/06/26 03:49:00;;;;;;;25.73;18.37;;;16.30;99.90;;;;;;5094793;28;20551;-84
2021/06/26 03:51:26;;;;;;;27.87;19.17;;;16.30;99.90;;;;;;5113269;28;20204;-83
2021/06/26 03:53:54;;;;;;;27.40;19.47;;;16.30;99.90;;;;;;5117473;28;20249;-83
2021/06/26 03:56:21;;;;;;;27.73;18.87;;;16.30;99.90;;;;;;5111863;28;20197;-84
2021/06/26 03:58:49;;;;;;;25.37;19.03;;;16.30;99.90;;;;;;5098220;28;20541;-82
2021/06/26 04:01:16;;;;;;;20.53;15.97;;;16.30;99.90;;;;;;5098299;28;20201;-82
2021/06/26 04:03:45;;;;;;;25.33;17.33;;;16.30;99.90;;;;;;5097637;28;20206;-83
2021/06/26 04:06:11;;;;;;;31.17;21.43;;;16.30;99.90;;;;;;5100285;28;20200;-84
2021/06/26 04:08:38;;;;;;;50.83;19.88;;;16.30;99.90;;;;;;5118650;28;20211;-83
2021/06/26 04:11:05;;;;;;;24.93;17.77;;;16.30;99.90;;;;;;5117840;28;20610;-83
2021/06/26 04:13:32;;;;;;;32.20;21.70;;;16.30;99.90;;;;;;5117279;28;20212;-84
2021/06/26 04:16:00;;;;;;;33.60;22.27;;;16.30;99.90;;;;;;5117922;28;20200;-83
2021/06/26 04:18:27;;;;;;;32.40;21.73;;;16.40;99.90;;;;;;5115265;28;20195;-84
2021/06/26 04:20:54;;;;;;;25.67;18.80;;;16.40;99.90;;;;;;5097958;28;20212;-82
2021/06/26 04:23:20;;;;;;;33.13;21.60;;;16.40;99.90;;;;;;5097925;28;20185;-83
2021/06/26 04:25:48;;;;;;;33.33;23.30;;;16.40;99.90;;;;;;5096744;28;20223;-83
2021/06/26 04:28:15;;;;;;;29.23;20.67;;;16.40;99.90;;;;;;5118492;28;20199;-83
2021/06/26 04:30:42;;;;;;;30.67;21.37;;;16.40;99.90;;;;;;5138157;27;20184;-84
2021/06/26 04:33:10;;;;;;;28.57;20.17;;;16.40;99.90;;;;;;5119290;28;20203;-84
2021/06/26 04:35:37;;;;;;;26.17;18.70;;;16.40;99.90;;;;;;5116557;28;20227;-83
2021/06/26 04:38:04;;;;;;;23.00;17.37;;;16.40;99.90;;;;;;5117002;28;20215;-85
2021/06/26 04:40:31;;;;;;;30.03;20.00;;;16.40;99.90;;;;;;5097087;28;20196;-82
2021/06/26 04:42:58;;;;;;;28.23;20.63;;;16.40;99.90;;;;;;5097538;28;20189;-84
2021/06/26 04:45:25;;;;;;;29.37;20.57;;;16.40;99.90;;;;;;5096662;28;20216;-83
2021/06/26 04:47:51;;;;;;;31.23;21.70;;;16.40;99.90;;;;;;5097403;28;20196;-84
2021/06/26 04:50:20;;;;;;;33.00;22.70;;;16.40;99.90;;;;;;5116519;28;20215;-84
2021/06/26 04:52:47;;;;;;;27.60;19.42;;;16.50;99.90;;;;;;5117238;28;20200;-83
2021/06/26 04:55:14;;;;;;;32.47;21.50;;;16.40;99.90;;;;;;5116061;28;20295;-83
2021/06/26 04:57:41;;;;;;;28.77;20.00;;;16.40;99.90;;;;;;5109896;28;20217;-83
2021/06/26 05:00:09;;;;;;;32.67;22.53;;;16.40;99.90;;;;;;5097042;28;20485;-84
2021/06/26 05:02:36;;;;;;;40.78;25.98;;;16.40;99.90;;;;;;5096550;28;20496;-84
2021/06/26 05:05:03;;;;;;;39.03;24.63;;;16.50;99.90;;;;;;5096615;28;20219;-84
2021/06/26 05:07:31;;;;;;;36.30;25.63;;;16.40;99.90;;;;;;5096340;28;20188;-84
2021/06/26 05:09:58;;;;;;;35.05;23.05;;;16.50;99.90;;;;;;5096174;28;20505;-83
2021/06/26 05:12:24;;;;;;;34.27;23.13;;;16.50;99.90;;;;;;5097058;28;20193;-83
2021/06/26 05:14:51;;;;;;;32.27;22.73;;;16.60;99.90;;;;;;5095200;28;20208;-83
2021/06/26 05:17:18;;;;;;;33.97;22.50;;;16.60;99.90;;;;;;5096660;28;20240;-84
2021/06/26 05:19:45;;;;;;;35.92;23.95;;;16.60;99.90;;;;;;5096834;28;20201;-83
2021/06/26 05:22:12;;;;;;;38.50;24.02;;;16.60;99.90;;;;;;5095979;28;20197;-83
2021/06/26 05:24:41;;;;;;;36.27;24.77;;;16.60;99.90;;;;;;5116764;28;20219;-83
2021/06/26 05:27:08;;;;;;;32.42;22.15;;;16.70;99.90;;;;;;5116742;28;20200;-83
2021/06/26 05:29:40;;;;;;;40.03;26.37;;;16.80;99.90;;;;;;5114829;28;20247;-83
2021/06/26 05:32:08;;;;;;;37.80;25.42;;;16.80;99.90;;;;;;5116817;28;20209;-82
2021/06/26 05:34:35;;;;;;;43.67;28.33;;;16.80;99.90;;;;;;5116151;28;20211;-82
2021/06/26 05:37:02;;;;;;;41.58;28.35;;;16.90;99.90;;;;;;5099472;28;20576;-83
2021/06/26 05:39:28;;;;;;;40.17;27.13;;;16.90;99.90;;;;;;5096135;28;20200;-81
2021/06/26 05:41:56;;;;;;;39.58;24.92;;;16.90;99.90;;;;;;5096002;28;20196;-83
2021/06/26 05:44:23;;;;;;;45.53;28.50;;;16.90;99.90;;;;;;5096001;28;20209;-83
2021/06/26 05:46:50;;;;;;;33.05;23.33;;;16.90;99.90;;;;;;5111644;28;20176;-84
2021/06/26 05:49:17;;;;;;;43.90;28.77;;;16.90;99.90;;;;;;5095389;28;20213;-83
2021/06/26 05:51:44;;;;;;;49.05;30.73;;;16.90;99.90;;;;;;5095645;28;20189;-82
2021/06/26 05:54:10;;;;;;;46.35;29.17;;;16.90;99.90;;;;;;5095965;28;20200;-83
2021/06/26 05:56:37;;;;;;;51.30;31.05;;;16.90;99.90;;;;;;5094834;28;20205;-83
2021/06/26 05:59:05;;;;;;;43.38;27.58;;;16.90;99.90;;;;;;5095967;28;20193;-84
2021/06/26 06:01:32;;;;;;;49.85;30.63;;;16.90;99.90;;;;;;5096090;28;20193;-83
2021/06/26 06:03:59;;;;;;;50.00;32.22;;;16.90;99.90;;;;;;5095078;28;20203;-82
2021/06/26 06:06:25;;;;;;;39.55;26.27;;;16.90;99.90;;;;;;5094869;28;20216;-83
2021/06/26 06:08:52;;;;;;;44.40;27.48;;;16.90;99.90;;;;;;5095866;28;20192;-82
2021/06/26 06:11:19;;;;;;;43.13;26.70;;;16.90;99.90;;;;;;5094496;28;20235;-83
2021/06/26 06:13:46;;;;;;;30.42;21.15;;;16.90;99.90;;;;;;5095655;28;20189;-82
2021/06/26 06:16:14;;;;;;;47.55;30.02;;;17.00;99.90;;;;;;5094935;28;20212;-83
2021/06/26 06:18:41;;;;;;;42.95;29.05;;;17.00;99.90;;;;;;5094971;28;20192;-82
2021/06/26 06:21:07;;;;;;;40.60;28.35;;;17.00;99.90;;;;;;5095377;28;20200;-82
2021/06/26 06:23:34;;;;;;;44.13;29.90;;;17.00;99.90;;;;;;5095732;28;20215;-83
2021/06/26 06:26:01;;;;;;;48.08;31.77;;;17.00;99.90;;;;;;5094773;28;20225;-83
2021/06/26 06:28:28;;;;;;;49.35;31.10;;;17.00;99.90;;;;;;5095291;28;20204;-83
2021/06/26 06:30:54;;;;;;;47.42;31.67;;;17.00;99.90;;;;;;5094290;28;20618;-80
2021/06/26 06:33:22;;;;;;;52.08;31.58;;;17.00;99.90;;;;;;5095206;28;20600;-81
2021/06/26 06:35:49;;;;;;;38.27;26.90;;;17.00;99.90;;;;;;5094900;28;20201;-82
2021/06/26 06:38:16;;;;;;;45.38;31.70;;;17.00;99.90;;;;;;5094840;28;20207;-82
2021/06/26 06:40:43;;;;;;;44.85;29.40;;;17.10;99.90;;;;;;5095298;28;20188;-82
2021/06/26 06:43:10;;;;;;;39.33;28.50;;;17.10;99.90;;;;;;5095360;28;20502;-81
2021/06/26 06:45:37;;;;;;;46.33;30.70;;;17.10;99.90;;;;;;5107660;28;20227;-81
2021/06/26 06:48:04;;;;;;;49.03;31.67;;;17.10;99.90;;;;;;5115384;28;20203;-82
2021/06/26 06:50:33;;;;;;;40.83;27.65;;;17.10;99.90;;;;;;5115867;28;20196;-82
2021/06/26 06:53:02;;;;;;;33.72;25.85;;;17.20;99.90;;;;;;5100875;28;20201;-82
2021/06/26 06:55:29;;;;;;;28.10;20.77;;;17.30;99.90;;;;;;5094907;28;20189;-82
2021/06/26 06:57:56;;;;;;;43.00;27.52;;;17.40;99.90;;;;;;5094775;28;20502;-82
2021/06/26 07:00:23;;;;;;;37.92;26.83;;;17.40;99.90;;;;;;5111911;28;20239;-82
2021/06/26 07:02:50;;;;;;;42.05;29.45;;;17.50;99.90;;;;;;5124991;27;20191;-83
2021/06/26 07:05:17;;;;;;;44.10;30.02;;;17.70;99.90;;;;;;5113748;28;20635;-83
2021/06/26 07:07:45;;;;;;;37.15;28.15;;;17.80;99.90;;;;;;5114976;28;20199;-82
2021/06/26 07:10:12;;;;;;;37.80;28.13;;;17.90;99.90;;;;;;5115126;28;20212;-82
2021/06/26 07:12:39;;;;;;;37.63;25.73;;;18.00;99.90;;;;;;5113805;28;20188;-82
2021/06/26 07:15:07;;;;;;;37.30;28.00;;;18.10;99.90;;;;;;5074188;28;20201;-83
2021/06/26 07:17:34;;;;;;;28.95;23.48;;;18.20;99.90;;;;;;5074563;28;20229;-82
2021/06/26 07:20:01;;;;;;;30.10;23.42;;;18.30;99.90;;;;;;5082329;28;20197;-81
2021/06/26 07:22:27;;;;;;;30.02;23.52;;;18.30;99.90;;;;;;5094438;28;20203;-82
2021/06/26 07:24:56;;;;;;;37.40;27.67;;;18.40;99.90;;;;;;5094701;28;20239;-82
2021/06/26 07:27:22;;;;;;;31.75;25.17;;;18.50;99.90;;;;;;5095197;28;20215;-81
2021/06/26 07:29:49;;;;;;;29.55;24.17;;;18.50;99.90;;;;;;5098537;28;20203;-81
2021/06/26 07:32:16;;;;;;;32.08;25.77;;;18.50;99.90;;;;;;5098700;28;20197;-83
2021/06/26 07:34:43;;;;;;;25.25;21.75;;;18.50;99.90;;;;;;5097961;28;20209;-82
2021/06/26 07:37:09;;;;;;;25.75;21.10;;;18.50;99.90;;;;;;5112400;28;20518;-83
2021/06/26 07:39:36;;;;;;;32.05;26.40;;;18.60;99.90;;;;;;5110581;28;20252;-82
2021/06/26 07:42:05;;;;;;;29.10;23.48;;;18.70;99.90;;;;;;5118189;28;20199;-82
2021/06/26 07:44:32;;;;;;;24.92;21.55;;;18.70;99.90;;;;;;5118814;28;20729;-82
2021/06/26 07:46:59;;;;;;;24.05;20.90;;;18.80;99.90;;;;;;5103789;28;20700;-81
2021/06/26 07:49:26;;;;;;;26.55;23.67;;;18.90;99.90;;;;;;5097456;28;20192;-82
2021/06/26 07:51:52;;;;;;;22.67;20.17;;;19.00;99.90;;;;;;5097997;28;20208;-81
2021/06/26 07:54:19;;;;;;;28.10;21.80;;;19.20;99.90;;;;;;5098036;28;20205;-82
2021/06/26 07:56:47;;;;;;;26.17;20.85;;;19.30;99.90;;;;;;5110071;28;20226;-82
2021/06/26 07:59:15;;;;;;;30.58;22.67;;;19.50;99.90;;;;;;5118411;28;20607;-84
2021/06/26 08:01:43;;;;;;;29.30;22.27;;;19.60;99.90;;;;;;5116738;28;20589;-81
2021/06/26 08:04:10;;;;;;;23.45;20.17;;;19.80;99.90;;;;;;5117850;28;20195;-81
2021/06/26 08:06:36;;;;;;;23.40;19.10;;;19.90;99.90;;;;;;5118134;28;20231;-81
2021/06/26 08:09:04;;;;;;;23.02;17.73;;;20.00;99.90;;;;;;5116552;28;20188;-81
2021/06/26 08:11:30;;;;;;;21.40;17.30;;;20.20;99.90;;;;;;5117591;28;20254;-81
2021/06/26 08:13:57;;;;;;;19.85;17.02;;;20.30;99.90;;;;;;5118293;28;20204;-81
2021/06/26 08:16:26;;;;;;;23.67;19.33;;;20.40;99.90;;;;;;5117562;28;20306;-83
2021/06/26 08:18:52;;;;;;;24.70;19.08;;;20.40;99.90;;;;;;5116589;28;20208;-82
2021/06/26 08:21:20;;;;;;;23.20;17.30;;;20.40;99.90;;;;;;5117808;28;20490;-82
2021/06/26 08:23:48;;;;;;;23.15;17.67;;;20.50;99.90;;;;;;5112236;28;20200;-82
2021/06/26 08:26:15;;;;;;;19.20;16.77;;;20.60;99.90;;;;;;5097279;28;20213;-82
2021/06/26 08:28:41;;;;;;;21.52;17.15;;;20.70;99.90;;;;;;5109167;28;20493;-81
2021/06/26 08:31:08;;;;;;;22.40;19.63;;;20.70;99.90;;;;;;5117067;28;20239;-82
2021/06/26 08:33:36;;;;;;;22.00;19.60;;;20.70;99.90;;;;;;5117689;28;20196;-82
2021/06/26 08:36:04;;;;;;;21.40;18.98;;;20.80;99.90;;;;;;5117825;28;20188;-80
2021/06/26 08:38:30;;;;;;;21.63;19.38;;;20.80;99.90;;;;;;5101509;28;20201;-82
2021/06/26 08:40:57;;;;;;;24.13;21.52;;;20.70;99.90;;;;;;5097017;28;20691;-81
2021/06/26 08:43:27;;;;;;;30.17;24.10;;;20.70;99.90;;;;;;5096390;28;20222;-81
2021/06/26 08:45:54;;;;;;;18.60;16.25;;;20.70;99.90;;;;;;5096214;28;20631;-82
2021/06/26 08:48:22;;;;;;;25.73;22.17;;;20.90;99.90;;;;;;5097064;28;20423;-81
2021/06/26 08:50:51;;;;;;;23.77;21.20;;;20.90;99.90;;;;;;5096819;28;20193;-82
2021/06/26 08:53:18;;;;;;;21.80;18.95;;;21.00;99.90;;;;;;5113571;28;20200;-81
2021/06/26 08:55:44;;;;;;;22.27;19.90;;;21.30;99.90;;;;;;5117218;28;20202;-83
2021/06/26 08:58:13;;;;;;;22.30;19.70;;;21.50;99.90;;;;;;5116963;28;20207;-82
2021/06/26 09:00:39;;;;;;;20.15;18.05;;;21.80;99.90;;;;;;5110930;28;20236;-83
2021/06/26 09:03:08;;;;;;;20.73;18.52;;;22.20;99.90;;;;;;5096729;28;20208;-83
2021/06/26 09:05:35;;;;;;;19.42;17.42;;;22.40;99.90;;;;;;5096030;28;20307;-81
2021/06/26 09:08:10;;;;;;;20.17;18.20;;;22.40;99.90;;;;;;5096874;28;20200;-82
2021/06/26 09:10:37;;;;;;;19.55;17.35;;;22.40;99.90;;;;;;5087984;28;20228;-81
2021/06/26 09:13:12;;;;;;;20.42;18.27;;;22.30;99.90;;;;;;5095876;28;20196;-82
2021/06/26 09:15:39;;;;;;;17.08;15.40;;;22.30;99.90;;;;;;5076272;28;20199;-83
2021/06/26 09:18:12;;;;;;;20.73;18.60;;;22.40;99.90;;;;;;5075922;28;20587;-81
2021/06/26 09:20:40;;;;;;;18.98;17.00;;;22.60;99.90;;;;;;5075726;28;20197;-81
2021/06/26 09:23:18;;;;;;;17.10;15.35;;;22.80;99.90;;;;;;5099773;28;20207;-82
2021/06/26 09:25:45;;;;;;;19.25;17.27;;;23.00;99.90;;;;;;5116596;28;20692;-82
2021/06/26 09:28:24;;;;;;;17.27;15.50;;;23.00;99.90;;;;;;5115961;28;20203;-83
2021/06/26 09:30:53;;;;;;;20.00;17.88;;;23.00;99.90;;;;;;5115330;28;20200;-82
2021/06/26 09:33:23;;;;;;;20.42;17.67;;;23.20;99.90;;;;;;5116764;28;20591;-83
2021/06/26 09:36:05;;;;;;;17.00;15.30;;;23.40;99.90;;;;;;5112084;28;20227;-82
2021/06/26 09:38:35;;;;;;;15.23;13.68;;;23.60;99.90;;;;;;5096149;28;20204;-83
2021/06/26 09:41:13;;;;;;;16.20;14.52;;;23.70;99.90;;;;;;5095380;28;20201;-83
2021/06/26 09:43:40;;;;;;;17.23;15.52;;;23.80;99.90;;;;;;5095370;28;20287;-83
2021/06/26 09:46:08;;;;;;;14.95;13.35;;;23.50;99.90;;;;;;5096064;28;20224;-82
2021/06/26 09:48:59;;;;;;;15.68;13.95;;;23.50;99.90;;;;;;5095770;28;20200;-82
2021/06/26 09:51:28;;;;;;;14.60;13.15;;;23.50;99.90;;;;;;5095206;28;20193;-83
2021/06/26 09:53:59;;;;;;;14.35;12.82;;;23.70;99.90;;;;;;5113746;28;20280;-82
2021/06/26 09:56:41;;;;;;;12.93;11.20;;;23.70;99.90;;;;;;5115707;28;20196;-83
2021/06/26 09:59:09;;;;;;;14.50;13.07;;;24.00;99.90;;;;;;5109190;28;20193;-82
2021/06/26 10:01:39;;;;;;;16.63;14.90;;;23.90;99.90;;;;;;5095438;28;20204;-82
2021/06/26 10:04:06;;;;;;;13.75;12.07;;;24.10;99.90;;;;;;5094205;28;20208;-81
2021/06/26 10:06:34;;;;;;;13.48;12.18;;;24.10;99.90;;;;;;5095699;28;20224;-83
2021/06/26 10:09:04;;;;;;;13.95;12.57;;;24.20;99.90;;;;;;5094881;28;20191;-83
2021/06/26 10:11:32;;;;;;;17.23;15.32;;;24.40;99.90;;;;;;5094904;28;20228;-82
2021/06/26 10:14:02;;;;;;;19.02;15.77;;;24.30;99.90;;;;;;5095787;28;20278;-84
2021/06/26 10:16:30;;;;;;;14.35;12.95;;;24.30;99.90;;;;;;5094908;28;20640;-82
2021/06/26 10:19:00;;;;;;;15.55;14.05;;;24.30;99.90;;;;;;5106651;28;20265;-81
2021/06/26 10:21:27;;;;;;;14.52;13.02;;;24.30;99.90;;;;;;5115759;28;20203;-81
2021/06/26 10:23:55;;;;;;;12.07;10.95;;;24.20;99.90;;;;;;5114932;28;20321;-82
2021/06/26 10:26:23;;;;;;;16.67;14.98;;;24.30;99.90;;;;;;5115376;28;20283;-82
2021/06/26 10:28:53;;;;;;;16.05;14.45;;;24.20;99.90;;;;;;5095043;28;20215;-81
2021/06/26 10:31:30;;;;;;;17.27;15.57;;;24.30;99.90;;;;;;5104199;28;20207;-83
2021/06/26 10:34:09;;;;;;;17.10;15.40;;;24.40;99.90;;;;;;5114473;28;20207;-81
2021/06/26 10:36:37;;;;;;;18.48;16.67;;;24.30;99.90;;;;;;5075088;28;20188;-82
2021/06/26 10:39:15;;;;;;;19.17;15.82;;;24.20;99.90;;;;;;5081422;28;20201;-82
2021/06/26 10:41:44;;;;;;;13.95;12.65;;;24.40;99.90;;;;;;5094992;28;20200;-82
2021/06/26 10:44:10;;;;;;;12.13;10.98;;;24.40;99.90;;;;;;5094653;28;20199;-82
2021/06/26 10:46:47;;;;;;;15.38;13.90;;;24.60;99.90;;;;;;5087322;28;20216;-82
2021/06/26 10:49:14;;;;;;;13.18;11.80;;;24.50;99.90;;;;;;5108507;28;20261;-81
2021/06/26 10:51:42;;;;;;;16.45;14.75;;;24.90;99.90;;;;;;5114502;28;20268;-82
2021/06/26 10:54:10;;;;;;;16.77;15.00;;;25.50;99.90;;;;;;5115279;28;20192;-82
2021/06/26 10:56:37;;;;;;;16.08;14.43;;;25.80;99.90;;;;;;5095900;28;20208;-82
2021/06/26 10:59:13;;;;;;;16.75;15.10;;;25.80;99.90;;;;;;5094434;28;20200;-82
2021/06/26 11:01:51;;;;;;;17.10;15.27;;;25.70;99.90;;;;;;5095682;28;20204;-80
2021/06/26 11:04:18;;;;;;;16.10;14.57;;;25.50;99.90;;;;;;5113562;28;20200;-82
2021/06/26 11:06:45;;;;;;;16.45;14.77;;;25.50;99.90;;;;;;5118891;28;20227;-80
2021/06/26 11:09:14;;;;;;;17.08;15.45;;;25.40;99.90;;;;;;5119404;28;20203;-81
2021/06/26 11:11:43;;;;;;;15.98;14.38;;;25.10;99.90;;;;;;5117857;28;20257;-81
2021/06/26 11:14:18;;;;;;;13.02;11.73;;;25.30;99.90;;;;;;5118704;28;20203;-81
2021/06/26 11:16:50;;;;;;;16.83;15.02;;;25.60;99.90;;;;;;5115177;28;20231;-82
2021/06/26 11:19:18;;;;;;;18.25;16.38;;;25.50;99.90;;;;;;5098397;28;20254;-82
2021/06/26 11:21:48;;;;;;;14.65;13.27;;;25.50;99.90;;;;;;5090193;28;20506;-82
2021/06/26 11:24:16;;;;;;;14.98;13.05;;;25.50;99.90;;;;;;5098756;28;20193;-82
2021/06/26 11:26:56;;;;;;;17.20;15.50;;;25.70;99.90;;;;;;5118608;28;20224;-82
2021/06/26 11:29:27;;;;;;;19.67;17.65;;;25.60;99.90;;;;;;5118931;28;20199;-83
2021/06/26 11:31:54;;;;;;;18.70;16.90;;;25.30;99.90;;;;;;5118753;28;20196;-82
2021/06/26 11:34:22;;;;;;;18.15;16.25;;;25.20;99.90;;;;;;5111882;28;20204;-82
2021/06/26 11:37:03;;;;;;;16.95;15.20;;;25.10;99.90;;;;;;5098380;28;20205;-82
2021/06/26 11:39:31;;;;;;;19.38;17.42;;;25.10;99.90;;;;;;5098096;28;20596;-81
2021/06/26 11:41:59;;;;;;;19.35;17.55;;;25.00;99.90;;;;;;5097859;28;20220;-81
2021/06/26 11:44:35;;;;;;;16.90;15.27;;;25.30;99.90;;;;;;5100698;28;20203;-83
2021/06/26 11:47:05;;;;;;;15.98;14.38;;;25.50;99.90;;;;;;5118537;28;20642;-82
2021/06/26 11:49:34;;;;;;;19.25;17.35;;;25.70;99.90;;;;;;5104587;28;20213;-81
2021/06/26 11:52:01;;;;;;;19.08;16.20;;;25.50;99.90;;;;;;5101709;28;20222;-81
2021/06/26 11:54:27;;;;;;;16.50;14.75;;;25.60;99.90;;;;;;5118088;28;20200;-83
2021/06/26 11:56:54;;;;;;;16.38;14.77;;;25.70;99.90;;;;;;5117357;28;20192;-83
2021/06/26 11:59:22;;;;;;;17.48;15.68;;;25.80;99.90;;;;;;5118047;28;20520;-82
2021/06/26 12:01:50;;;;;;;14.23;12.85;;;25.70;99.90;;;;;;5117716;28;20607;-82
2021/06/26 12:04:28;;;;;;;19.63;17.27;;;25.70;99.90;;;;;;5116742;28;20211;-82
2021/06/26 12:06:55;;;;;;;16.90;15.10;;;25.40;99.90;;;;;;5118368;28;20227;-82
2021/06/26 12:09:23;;;;;;;13.27;11.95;;;25.50;99.90;;;;;;5117651;28;20192;-81
2021/06/26 12:11:51;;;;;;;15.75;14.32;;;25.50;99.90;;;;;;5116765;28;20615;-83
2021/06/26 12:14:26;;;;;;;14.63;13.10;;;25.50;99.90;;;;;;5116818;28;20506;-83
2021/06/26 12:17:02;;;;;;;17.95;16.15;;;25.40;99.90;;;;;;5115506;28;20247;-82
2021/06/26 12:19:31;;;;;;;10.57;9.63;;;25.30;99.90;;;;;;5118151;28;20238;-81
2021/06/26 12:21:58;;;;;;;14.07;12.63;;;25.20;99.90;;;;;;5116755;28;20195;-82
2021/06/26 12:24:27;;;;;;;11.52;10.32;;;25.20;99.90;;;;;;5117254;28;20200;-83
2021/06/26 12:27:12;;;;;;;10.07;9.00;;;25.10;99.90;;;;;;5116027;28;20216;-82
2021/06/26 12:29:44;;;;;;;8.18;7.32;;;25.00;99.90;;;;;;5117450;28;20198;-82
2021/06/26 12:32:27;;;;;;;13.02;10.07;;;24.80;99.90;;;;;;5102521;28;20257;-81